sensor_id;sensor_type;location;lat;lon;timestamp;pressure;altitude;pressure_sealevel;temperature;humidity
6150;BME280;3106;42.670;23.318;2023-07-31T00:01:18;94143.22;;;22.09;81.65
6150;BME280;3106;42.670;23.318;2023-07-31T00:03:45;94130.94;;;22.01;82.01
6150;BME280;3106;42.670;23.318;2023-07-31T00:06:12;94145.75;;;22.00;81.99
6150;BME280;3106;42.670;23.318;2023-07-31T00:08:39;94143.53;;;21.95;82.48
6150;BME280;3106;42.670;23.318;2023-07-31T00:11:07;94146.66;;;21.93;83.31
6150;BME280;3106;42.670;23.318;2023-07-31T00:13:34;94132.69;;;21.91;82.97
6150;BME280;3106;42.670;23.318;2023-07-31T00:16:01;94130.97;;;21.81;82.93
6150;BME280;3106;42.670;23.318;2023-07-31T00:18:27;94143.25;;;21.89;83.35
6150;BME280;3106;42.670;23.318;2023-07-31T00:20:54;94145.06;;;21.96;83.58
6150;BME280;3106;42.670;23.318;2023-07-31T00:23:21;94140.97;;;21.88;84.24
6150;BME280;3106;42.670;23.318;2023-07-31T00:25:48;94141.66;;;21.72;87.96
6150;BME280;3106;42.670;23.318;2023-07-31T00:28:16;94140.19;;;21.68;90.58
6150;BME280;3106;42.670;23.318;2023-07-31T00:30:43;94131.06;;;21.55;91.72
6150;BME280;3106;42.670;23.318;2023-07-31T00:33:10;94120.66;;;21.50;92.95
6150;BME280;3106;42.670;23.318;2023-07-31T00:35:37;94106.44;;;21.42;93.54
6150;BME280;3106;42.670;23.318;2023-07-31T00:38:04;94108.81;;;21.41;94.70
6150;BME280;3106;42.670;23.318;2023-07-31T00:40:34;94093.53;;;21.27;94.88
6150;BME280;3106;42.670;23.318;2023-07-31T00:43:02;94102.78;;;21.30;95.41
6150;BME280;3106;42.670;23.318;2023-07-31T00:45:31;94111.56;;;21.18;95.95
6150;BME280;3106;42.670;23.318;2023-07-31T00:47:59;94109.69;;;21.15;96.66
6150;BME280;3106;42.670;23.318;2023-07-31T00:50:26;94117.97;;;21.08;97.73
6150;BME280;3106;42.670;23.318;2023-07-31T00:52:54;94106.50;;;20.97;98.39
6150;BME280;3106;42.670;23.318;2023-07-31T00:55:21;94113.06;;;20.99;98.92
6150;BME280;3106;42.670;23.318;2023-07-31T00:57:49;94108.13;;;20.91;99.32
6150;BME280;3106;42.670;23.318;2023-07-31T01:00:18;94104.31;;;20.88;99.83
6150;BME280;3106;42.670;23.318;2023-07-31T01:02:46;94094.16;;;20.92;99.98
6150;BME280;3106;42.670;23.318;2023-07-31T01:05:14;94097.28;;;20.91;100.00
6150;BME280;3106;42.670;23.318;2023-07-31T01:07:46;94100.41;;;20.89;99.68
6150;BME280;3106;42.670;23.318;2023-07-31T01:10:19;94098.53;;;20.86;100.00
6150;BME280;3106;42.670;23.318;2023-07-31T01:12:48;94098.44;;;20.90;100.00
6150;BME280;3106;42.670;23.318;2023-07-31T01:15:17;94091.22;;;20.80;100.00
6150;BME280;3106;42.670;23.318;2023-07-31T01:17:45;94090.88;;;20.78;100.00
6150;BME280;3106;42.670;23.318;2023-07-31T01:20:20;94090.16;;;20.74;100.00
6150;BME280;3106;42.670;23.318;2023-07-31T01:26:04;94090.28;;;20.67;100.00
6150;BME280;3106;42.670;23.318;2023-07-31T01:28:40;94091.00;;;20.71;100.00
6150;BME280;3106;42.670;23.318;2023-07-31T01:31:18;94095.38;;;20.65;100.00
6150;BME280;3106;42.670;23.318;2023-07-31T01:33:46;94083.66;;;20.68;100.00
6150;BME280;3106;42.670;23.318;2023-07-31T01:36:14;94092.19;;;20.70;100.00
6150;BME280;3106;42.670;23.318;2023-07-31T01:38:41;94086.03;;;20.66;100.00
6150;BME280;3106;42.670;23.318;2023-07-31T01:41:09;94082.25;;;20.60;100.00
6150;BME280;3106;42.670;23.318;2023-07-31T01:43:36;94079.81;;;20.65;100.00
6150;BME280;3106;42.670;23.318;2023-07-31T01:46:03;94085.34;;;20.62;100.00
6150;BME280;3106;42.670;23.318;2023-07-31T01:48:30;94086.19;;;20.55;100.00
6150;BME280;3106;42.670;23.318;2023-07-31T01:51:01;94080.81;;;20.52;100.00
6150;BME280;3106;42.670;23.318;2023-07-31T01:53:28;94088.59;;;20.50;100.00
6150;BME280;3106;42.670;23.318;2023-07-31T01:55:55;94093.63;;;20.51;100.00
6150;BME280;3106;42.670;23.318;2023-07-31T01:58:23;94094.88;;;20.47;100.00
6150;BME280;3106;42.670;23.318;2023-07-31T02:00:50;94099.91;;;20.48;100.00
6150;BME280;3106;42.670;23.318;2023-07-31T02:03:16;94096.88;;;20.43;100.00
6150;BME280;3106;42.670;23.318;2023-07-31T02:05:47;94096.47;;;20.44;100.00
6150;BME280;3106;42.670;23.318;2023-07-31T02:08:13;94088.72;;;20.43;100.00
6150;BME280;3106;42.670;23.318;2023-07-31T02:10:41;94098.06;;;20.42;100.00
6150;BME280;3106;42.670;23.318;2023-07-31T02:13:08;94094.16;;;20.43;100.00
6150;BME280;3106;42.670;23.318;2023-07-31T02:15:36;94096.16;;;20.39;100.00
6150;BME280;3106;42.670;23.318;2023-07-31T02:18:03;94093.84;;;20.37;100.00
6150;BME280;3106;42.670;23.318;2023-07-31T02:20:33;94100.06;;;20.38;100.00
6150;BME280;3106;42.670;23.318;2023-07-31T02:23:00;94102.66;;;20.45;100.00
6150;BME280;3106;42.670;23.318;2023-07-31T02:25:27;94096.81;;;20.46;100.00
6150;BME280;3106;42.670;23.318;2023-07-31T02:27:53;94089.38;;;20.50;100.00
6150;BME280;3106;42.670;23.318;2023-07-31T02:30:20;94102.50;;;20.55;100.00
6150;BME280;3106;42.670;23.318;2023-07-31T02:32:48;94095.56;;;20.51;100.00
6150;BME280;3106;42.670;23.318;2023-07-31T02:35:15;94098.66;;;20.53;100.00
6150;BME280;3106;42.670;23.318;2023-07-31T02:37:44;94088.91;;;20.55;100.00
6150;BME280;3106;42.670;23.318;2023-07-31T02:40:11;94097.41;;;20.57;100.00
6150;BME280;3106;42.670;23.318;2023-07-31T02:42:38;94088.75;;;20.66;100.00
6150;BME280;3106;42.670;23.318;2023-07-31T02:45:06;94099.19;;;20.67;100.00
6150;BME280;3106;42.670;23.318;2023-07-31T02:47:33;94087.97;;;20.65;100.00
6150;BME280;3106;42.670;23.318;2023-07-31T02:50:01;94097.09;;;20.78;100.00
6150;BME280;3106;42.670;23.318;2023-07-31T02:52:28;94112.16;;;20.83;100.00
6150;BME280;3106;42.670;23.318;2023-07-31T02:54:55;94119.44;;;20.89;100.00
6150;BME280;3106;42.670;23.318;2023-07-31T02:57:21;94115.81;;;20.96;100.00
6150;BME280;3106;42.670;23.318;2023-07-31T02:59:48;94125.88;;;20.99;100.00
6150;BME280;3106;42.670;23.318;2023-07-31T03:02:15;94133.56;;;21.04;100.00
6150;BME280;3106;42.670;23.318;2023-07-31T03:04:42;94128.84;;;21.08;100.00
6150;BME280;3106;42.670;23.318;2023-07-31T03:07:10;94124.50;;;21.10;100.00
6150;BME280;3106;42.670;23.318;2023-07-31T03:09:37;94129.19;;;21.10;100.00
6150;BME280;3106;42.670;23.318;2023-07-31T03:12:04;94129.22;;;21.06;100.00
6150;BME280;3106;42.670;23.318;2023-07-31T03:14:31;94131.81;;;21.13;100.00
6150;BME280;3106;42.670;23.318;2023-07-31T03:16:58;94129.50;;;21.15;100.00
6150;BME280;3106;42.670;23.318;2023-07-31T03:19:25;94131.56;;;21.08;100.00
6150;BME280;3106;42.670;23.318;2023-07-31T03:21:52;94139.97;;;21.13;100.00
6150;BME280;3106;42.670;23.318;2023-07-31T03:24:20;94133.56;;;21.04;100.00
6150;BME280;3106;42.670;23.318;2023-07-31T03:26:47;94131.19;;;21.06;100.00
6150;BME280;3106;42.670;23.318;2023-07-31T03:29:14;94134.63;;;21.10;100.00
6150;BME280;3106;42.670;23.318;2023-07-31T03:31:41;94139.72;;;21.08;100.00
6150;BME280;3106;42.670;23.318;2023-07-31T03:34:07;94136.63;;;21.06;100.00
6150;BME280;3106;42.670;23.318;2023-07-31T03:36:34;94138.22;;;21.03;100.00
6150;BME280;3106;42.670;23.318;2023-07-31T03:39:01;94142.13;;;21.02;100.00
6150;BME280;3106;42.670;23.318;2023-07-31T03:41:30;94149.75;;;21.11;100.00
6150;BME280;3106;42.670;23.318;2023-07-31T03:43:56;94142.69;;;21.13;100.00
6150;BME280;3106;42.670;23.318;2023-07-31T03:46:25;94153.88;;;21.19;100.00
6150;BME280;3106;42.670;23.318;2023-07-31T03:48:52;94148.78;;;21.21;100.00
6150;BME280;3106;42.670;23.318;2023-07-31T03:51:19;94151.81;;;21.26;100.00
6150;BME280;3106;42.670;23.318;2023-07-31T03:53:46;94154.94;;;21.25;100.00
6150;BME280;3106;42.670;23.318;2023-07-31T03:56:13;94156.38;;;21.33;100.00
6150;BME280;3106;42.670;23.318;2023-07-31T03:58:41;94152.50;;;21.30;100.00
6150;BME280;3106;42.670;23.318;2023-07-31T04:01:08;94163.25;;;21.37;100.00
6150;BME280;3106;42.670;23.318;2023-07-31T04:03:35;94166.06;;;21.34;100.00
6150;BME280;3106;42.670;23.318;2023-07-31T04:06:02;94156.38;;;21.33;100.00
6150;BME280;3106;42.670;23.318;2023-07-31T04:08:29;94160.63;;;21.34;100.00
6150;BME280;3106;42.670;23.318;2023-07-31T04:10:55;94162.91;;;21.35;100.00
6150;BME280;3106;42.670;23.318;2023-07-31T04:13:22;94161.31;;;21.38;100.00
6150;BME280;3106;42.670;23.318;2023-07-31T04:15:50;94169.06;;;21.39;100.00
6150;BME280;3106;42.670;23.318;2023-07-31T04:18:17;94162.63;;;21.30;100.00
6150;BME280;3106;42.670;23.318;2023-07-31T04:20:44;94171.97;;;21.29;100.00
6150;BME280;3106;42.670;23.318;2023-07-31T04:23:11;94162.69;;;21.26;100.00
6150;BME280;3106;42.670;23.318;2023-07-31T04:25:38;94119.41;;;21.12;100.00
6150;BME280;3106;42.670;23.318;2023-07-31T04:28:04;94173.97;;;21.47;100.00
6150;BME280;3106;42.670;23.318;2023-07-31T04:30:32;94168.38;;;21.54;100.00
6150;BME280;3106;42.670;23.318;2023-07-31T04:33:01;94179.16;;;21.61;100.00
6150;BME280;3106;42.670;23.318;2023-07-31T04:35:29;94172.44;;;21.69;99.74
6150;BME280;3106;42.670;23.318;2023-07-31T04:37:55;94172.00;;;21.71;99.49
6150;BME280;3106;42.670;23.318;2023-07-31T04:40:22;94177.66;;;21.80;98.20
6150;BME280;3106;42.670;23.318;2023-07-31T04:42:49;94175.34;;;21.78;97.59
6150;BME280;3106;42.670;23.318;2023-07-31T04:45:16;94164.88;;;21.77;97.43
6150;BME280;3106;42.670;23.318;2023-07-31T04:47:43;94179.03;;;21.68;98.10
6150;BME280;3106;42.670;23.318;2023-07-31T04:50:11;94168.28;;;21.81;97.07
6150;BME280;3106;42.670;23.318;2023-07-31T04:52:39;94162.59;;;21.95;96.60
6150;BME280;3106;42.670;23.318;2023-07-31T04:55:06;94168.44;;;22.13;94.99
6150;BME280;3106;42.670;23.318;2023-07-31T04:57:33;94173.84;;;22.32;93.72
6150;BME280;3106;42.670;23.318;2023-07-31T05:00:00;94172.97;;;22.39;93.81
6150;BME280;3106;42.670;23.318;2023-07-31T05:02:27;94163.72;;;22.33;93.42
6150;BME280;3106;42.670;23.318;2023-07-31T05:04:53;94180.22;;;22.45;93.34
6150;BME280;3106;42.670;23.318;2023-07-31T05:07:22;94178.22;;;22.65;92.67
6150;BME280;3106;42.670;23.318;2023-07-31T05:09:48;94182.84;;;22.84;91.83
6150;BME280;3106;42.670;23.318;2023-07-31T05:12:15;94178.78;;;23.24;89.76
6150;BME280;3106;42.670;23.318;2023-07-31T05:14:42;94168.53;;;23.44;88.28
6150;BME280;3106;42.670;23.318;2023-07-31T05:17:09;94166.44;;;23.64;87.40
6150;BME280;3106;42.670;23.318;2023-07-31T05:19:36;94173.47;;;23.93;85.22
6150;BME280;3106;42.670;23.318;2023-07-31T05:22:03;94175.78;;;23.79;85.25
6150;BME280;3106;42.670;23.318;2023-07-31T05:24:31;94175.44;;;23.93;84.84
6150;BME280;3106;42.670;23.318;2023-07-31T05:26:59;94167.50;;;24.11;83.68
6150;BME280;3106;42.670;23.318;2023-07-31T05:29:25;94172.22;;;24.10;83.87
6150;BME280;3106;42.670;23.318;2023-07-31T05:31:53;94178.06;;;24.25;82.30
6150;BME280;3106;42.670;23.318;2023-07-31T05:34:19;94177.16;;;24.93;79.19
6150;BME280;3106;42.670;23.318;2023-07-31T05:36:46;94177.88;;;25.78;74.71
6150;BME280;3106;42.670;23.318;2023-07-31T05:39:13;94170.72;;;26.87;68.15
6150;BME280;3106;42.670;23.318;2023-07-31T05:41:41;94166.09;;;27.63;63.58
6150;BME280;3106;42.670;23.318;2023-07-31T05:44:08;94171.47;;;28.47;59.02
6150;BME280;3106;42.670;23.318;2023-07-31T05:46:35;94185.44;;;29.59;54.80
6150;BME280;3106;42.670;23.318;2023-07-31T05:49:02;94185.44;;;30.06;52.03
6150;BME280;3106;42.670;23.318;2023-07-31T05:51:28;94181.69;;;29.94;50.54
6150;BME280;3106;42.670;23.318;2023-07-31T05:53:55;94185.06;;;29.10;51.98
6150;BME280;3106;42.670;23.318;2023-07-31T05:56:22;94184.75;;;27.95;56.13
6150;BME280;3106;42.670;23.318;2023-07-31T05:58:50;94179.31;;;26.68;62.17
6150;BME280;3106;42.670;23.318;2023-07-31T06:01:17;94186.75;;;26.89;60.90
6150;BME280;3106;42.670;23.318;2023-07-31T06:03:44;94178.06;;;26.90;60.37
6150;BME280;3106;42.670;23.318;2023-07-31T06:06:11;94186.00;;;27.28;58.26
6150;BME280;3106;42.670;23.318;2023-07-31T06:08:38;94196.00;;;28.78;53.22
6150;BME280;3106;42.670;23.318;2023-07-31T06:11:06;94193.97;;;29.05;50.69
6150;BME280;3106;42.670;23.318;2023-07-31T06:13:34;94194.16;;;28.75;50.97
6150;BME280;3106;42.670;23.318;2023-07-31T06:16:02;94201.88;;;28.17;51.03
6150;BME280;3106;42.670;23.318;2023-07-31T06:18:31;94198.59;;;27.65;52.48
6150;BME280;3106;42.670;23.318;2023-07-31T06:20:57;94199.28;;;27.95;51.62
6150;BME280;3106;42.670;23.318;2023-07-31T06:23:24;94201.19;;;28.85;49.19
6150;BME280;3106;42.670;23.318;2023-07-31T06:25:51;94190.19;;;28.85;48.46
6150;BME280;3106;42.670;23.318;2023-07-31T06:28:18;94194.66;;;28.73;48.79
6150;BME280;3106;42.670;23.318;2023-07-31T06:30:45;94190.09;;;28.52;49.58
6150;BME280;3106;42.670;23.318;2023-07-31T06:33:14;94185.03;;;27.13;53.60
6150;BME280;3106;42.670;23.318;2023-07-31T06:35:40;94186.09;;;26.54;55.85
6150;BME280;3106;42.670;23.318;2023-07-31T06:38:07;94188.38;;;26.47;56.96
6150;BME280;3106;42.670;23.318;2023-07-31T06:40:34;94193.34;;;27.31;54.72
6150;BME280;3106;42.670;23.318;2023-07-31T06:43:01;94191.81;;;28.14;52.58
6150;BME280;3106;42.670;23.318;2023-07-31T06:45:33;94193.91;;;28.64;50.85
6150;BME280;3106;42.670;23.318;2023-07-31T06:48:00;94195.91;;;28.63;50.47
6150;BME280;3106;42.670;23.318;2023-07-31T06:50:29;94196.91;;;28.75;50.53
6150;BME280;3106;42.670;23.318;2023-07-31T06:52:56;94195.59;;;27.81;52.06
6150;BME280;3106;42.670;23.318;2023-07-31T06:55:24;94190.75;;;26.97;55.40
6150;BME280;3106;42.670;23.318;2023-07-31T06:57:52;94187.34;;;27.14;55.01
6150;BME280;3106;42.670;23.318;2023-07-31T07:00:20;94191.97;;;26.44;56.86
6150;BME280;3106;42.670;23.318;2023-07-31T07:02:48;94184.81;;;26.98;55.09
6150;BME280;3106;42.670;23.318;2023-07-31T07:05:15;94193.16;;;27.25;53.75
6150;BME280;3106;42.670;23.318;2023-07-31T07:07:44;94187.91;;;26.79;55.61
6150;BME280;3106;42.670;23.318;2023-07-31T07:10:11;94182.63;;;26.54;55.91
6150;BME280;3106;42.670;23.318;2023-07-31T07:12:38;94193.38;;;26.06;57.41
6150;BME280;3106;42.670;23.318;2023-07-31T07:15:06;94185.78;;;25.76;59.10
6150;BME280;3106;42.670;23.318;2023-07-31T07:17:33;94194.56;;;25.83;58.88
6150;BME280;3106;42.670;23.318;2023-07-31T07:20:00;94182.72;;;25.86;57.32
6150;BME280;3106;42.670;23.318;2023-07-31T07:22:27;94183.50;;;25.40;60.12
6150;BME280;3106;42.670;23.318;2023-07-31T07:24:55;94188.75;;;25.35;60.50
6150;BME280;3106;42.670;23.318;2023-07-31T07:27:22;94184.31;;;25.50;59.13
6150;BME280;3106;42.670;23.318;2023-07-31T07:29:50;94185.59;;;25.70;58.61
6150;BME280;3106;42.670;23.318;2023-07-31T07:32:17;94183.72;;;25.67;58.29
6150;BME280;3106;42.670;23.318;2023-07-31T07:34:44;94181.31;;;25.35;60.14
6150;BME280;3106;42.670;23.318;2023-07-31T07:37:11;94181.31;;;25.10;62.11
6150;BME280;3106;42.670;23.318;2023-07-31T07:39:38;94181.09;;;24.80;63.13
6150;BME280;3106;42.670;23.318;2023-07-31T07:42:06;94181.75;;;24.96;62.33
6150;BME280;3106;42.670;23.318;2023-07-31T07:44:33;94184.91;;;25.07;61.43
6150;BME280;3106;42.670;23.318;2023-07-31T07:47:00;94196.78;;;25.17;61.79
6150;BME280;3106;42.670;23.318;2023-07-31T07:49:27;94197.28;;;25.37;61.26
6150;BME280;3106;42.670;23.318;2023-07-31T07:51:54;94197.72;;;25.35;60.45
6150;BME280;3106;42.670;23.318;2023-07-31T07:54:21;94202.44;;;25.22;59.79
6150;BME280;3106;42.670;23.318;2023-07-31T07:56:47;94192.56;;;24.75;59.80
6150;BME280;3106;42.670;23.318;2023-07-31T07:59:16;94201.88;;;24.77;59.60
6150;BME280;3106;42.670;23.318;2023-07-31T08:01:43;94207.69;;;24.79;59.66
6150;BME280;3106;42.670;23.318;2023-07-31T08:04:10;94195.97;;;24.67;60.90
6150;BME280;3106;42.670;23.318;2023-07-31T08:06:37;94195.75;;;25.11;60.35
6150;BME280;3106;42.670;23.318;2023-07-31T08:09:03;94201.69;;;25.34;59.90
6150;BME280;3106;42.670;23.318;2023-07-31T08:11:31;94206.47;;;25.30;59.73
6150;BME280;3106;42.670;23.318;2023-07-31T08:13:58;94200.13;;;25.08;59.52
6150;BME280;3106;42.670;23.318;2023-07-31T08:16:27;94196.84;;;25.38;59.50
6150;BME280;3106;42.670;23.318;2023-07-31T08:18:53;94197.69;;;25.82;57.87
6150;BME280;3106;42.670;23.318;2023-07-31T08:21:21;94205.06;;;25.38;57.88
6150;BME280;3106;42.670;23.318;2023-07-31T08:23:48;94201.22;;;25.36;58.77
6150;BME280;3106;42.670;23.318;2023-07-31T08:26:15;94196.59;;;25.58;57.25
6150;BME280;3106;42.670;23.318;2023-07-31T08:28:42;94176.94;;;25.72;56.57
6150;BME280;3106;42.670;23.318;2023-07-31T08:31:09;94197.63;;;25.73;56.12
6150;BME280;3106;42.670;23.318;2023-07-31T08:33:38;94207.72;;;26.10;54.36
6150;BME280;3106;42.670;23.318;2023-07-31T08:36:06;94192.06;;;26.10;54.82
6150;BME280;3106;42.670;23.318;2023-07-31T08:38:33;94206.38;;;26.14;54.94
6150;BME280;3106;42.670;23.318;2023-07-31T08:41:00;94190.38;;;25.91;55.42
6150;BME280;3106;42.670;23.318;2023-07-31T08:43:27;94191.38;;;26.06;54.42
6150;BME280;3106;42.670;23.318;2023-07-31T08:45:54;94199.94;;;26.29;53.17
6150;BME280;3106;42.670;23.318;2023-07-31T08:48:22;94188.19;;;26.72;52.19
6150;BME280;3106;42.670;23.318;2023-07-31T08:50:51;94194.28;;;26.76;51.92
6150;BME280;3106;42.670;23.318;2023-07-31T08:53:18;94194.53;;;26.90;52.05
6150;BME280;3106;42.670;23.318;2023-07-31T08:55:46;94194.28;;;26.76;51.98
6150;BME280;3106;42.670;23.318;2023-07-31T08:58:15;94200.22;;;26.65;51.75
6150;BME280;3106;42.670;23.318;2023-07-31T09:00:42;94197.84;;;26.12;53.12
6150;BME280;3106;42.670;23.318;2023-07-31T09:03:14;94197.38;;;25.92;53.33
6150;BME280;3106;42.670;23.318;2023-07-31T09:05:43;94190.63;;;25.84;53.96
6150;BME280;3106;42.670;23.318;2023-07-31T09:08:12;94199.69;;;26.15;53.52
6150;BME280;3106;42.670;23.318;2023-07-31T09:10:43;94191.81;;;26.69;52.09
6150;BME280;3106;42.670;23.318;2023-07-31T09:13:11;94194.72;;;26.96;50.82
6150;BME280;3106;42.670;23.318;2023-07-31T09:15:39;94199.19;;;26.50;50.79
6150;BME280;3106;42.670;23.318;2023-07-31T09:18:06;94193.56;;;26.11;52.24
6150;BME280;3106;42.670;23.318;2023-07-31T09:20:34;94173.81;;;26.37;51.59
6150;BME280;3106;42.670;23.318;2023-07-31T09:23:08;94183.38;;;26.54;51.18
6150;BME280;3106;42.670;23.318;2023-07-31T09:25:37;94183.63;;;26.78;50.74
6150;BME280;3106;42.670;23.318;2023-07-31T09:28:06;94181.59;;;26.91;49.79
6150;BME280;3106;42.670;23.318;2023-07-31T09:30:46;94149.13;;;26.59;51.03
6150;BME280;3106;42.670;23.318;2023-07-31T09:33:13;94170.97;;;26.71;51.67
6150;BME280;3106;42.670;23.318;2023-07-31T09:35:41;94170.19;;;26.71;51.88
6150;BME280;3106;42.670;23.318;2023-07-31T09:38:10;94167.50;;;27.10;50.37
6150;BME280;3106;42.670;23.318;2023-07-31T09:40:40;94168.75;;;27.27;49.99
6150;BME280;3106;42.670;23.318;2023-07-31T09:43:08;94170.22;;;27.68;49.09
6150;BME280;3106;42.670;23.318;2023-07-31T09:45:37;94161.09;;;27.88;47.89
6150;BME280;3106;42.670;23.318;2023-07-31T09:48:07;94167.41;;;27.23;49.65
6150;BME280;3106;42.670;23.318;2023-07-31T09:50:37;94165.03;;;26.73;49.64
6150;BME280;3106;42.670;23.318;2023-07-31T09:53:04;94169.84;;;26.60;50.71
6150;BME280;3106;42.670;23.318;2023-07-31T09:55:32;94160.72;;;26.63;50.55
6150;BME280;3106;42.670;23.318;2023-07-31T09:58:03;94151.72;;;26.93;50.42
6150;BME280;3106;42.670;23.318;2023-07-31T10:00:31;94154.78;;;27.04;49.11
6150;BME280;3106;42.670;23.318;2023-07-31T10:02:59;94150.47;;;27.33;48.49
6150;BME280;3106;42.670;23.318;2023-07-31T10:05:31;94145.94;;;27.66;47.25
6150;BME280;3106;42.670;23.318;2023-07-31T10:08:00;94167.34;;;27.98;47.07
6150;BME280;3106;42.670;23.318;2023-07-31T10:10:27;94165.41;;;27.32;47.96
6150;BME280;3106;42.670;23.318;2023-07-31T10:12:56;94159.84;;;27.63;46.56
6150;BME280;3106;42.670;23.318;2023-07-31T10:15:36;94138.34;;;27.97;45.88
6150;BME280;3106;42.670;23.318;2023-07-31T10:18:08;94154.63;;;28.54;44.05
6150;BME280;3106;42.670;23.318;2023-07-31T10:20:35;94157.09;;;28.43;45.03
6150;BME280;3106;42.670;23.318;2023-07-31T10:23:03;94163.69;;;28.10;44.73
6150;BME280;3106;42.670;23.318;2023-07-31T10:25:30;94156.81;;;27.88;44.93
6150;BME280;3106;42.670;23.318;2023-07-31T10:27:58;94151.47;;;28.02;45.24
6150;BME280;3106;42.670;23.318;2023-07-31T10:30:29;94145.75;;;28.59;44.09
6150;BME280;3106;42.670;23.318;2023-07-31T10:32:57;94143.66;;;28.18;44.62
6150;BME280;3106;42.670;23.318;2023-07-31T10:35:24;94130.88;;;27.71;45.97
6150;BME280;3106;42.670;23.318;2023-07-31T10:37:52;94135.56;;;26.95;47.57
6150;BME280;3106;42.670;23.318;2023-07-31T10:40:24;94136.53;;;26.70;47.72
6150;BME280;3106;42.670;23.318;2023-07-31T10:42:52;94135.19;;;27.14;47.81
6150;BME280;3106;42.670;23.318;2023-07-31T10:45:32;94135.72;;;27.58;46.72
6150;BME280;3106;42.670;23.318;2023-07-31T10:48:00;94146.47;;;27.92;44.86
6150;BME280;3106;42.670;23.318;2023-07-31T10:50:28;94138.13;;;28.54;43.83
6150;BME280;3106;42.670;23.318;2023-07-31T10:52:58;94126.25;;;28.39;43.57
6150;BME280;3106;42.670;23.318;2023-07-31T10:55:28;94128.88;;;28.16;44.20
6150;BME280;3106;42.670;23.318;2023-07-31T10:58:05;94121.84;;;28.15;44.48
6150;BME280;3106;42.670;23.318;2023-07-31T11:00:37;94118.72;;;28.58;43.87
6150;BME280;3106;42.670;23.318;2023-07-31T11:03:05;94120.94;;;28.77;42.38
6150;BME280;3106;42.670;23.318;2023-07-31T11:05:49;94124.84;;;28.94;40.57
6150;BME280;3106;42.670;23.318;2023-07-31T11:08:18;94115.72;;;28.88;41.02
6150;BME280;3106;42.670;23.318;2023-07-31T11:10:47;94114.41;;;28.66;41.11
6150;BME280;3106;42.670;23.318;2023-07-31T11:13:14;94109.25;;;28.41;41.54
6150;BME280;3106;42.670;23.318;2023-07-31T11:15:42;94108.81;;;28.24;41.82
6150;BME280;3106;42.670;23.318;2023-07-31T11:18:09;94118.78;;;28.81;41.08
6150;BME280;3106;42.670;23.318;2023-07-31T11:20:37;94119.06;;;28.92;40.25
6150;BME280;3106;42.670;23.318;2023-07-31T11:23:07;94111.91;;;28.35;42.00
6150;BME280;3106;42.670;23.318;2023-07-31T11:25:37;94121.41;;;28.67;41.00
6150;BME280;3106;42.670;23.318;2023-07-31T11:28:08;94120.84;;;29.04;40.43
6150;BME280;3106;42.670;23.318;2023-07-31T11:30:35;94115.34;;;29.04;39.80
6150;BME280;3106;42.670;23.318;2023-07-31T11:33:04;94113.72;;;28.80;40.80
6150;BME280;3106;42.670;23.318;2023-07-31T11:35:32;94112.72;;;28.59;40.78
6150;BME280;3106;42.670;23.318;2023-07-31T11:38:00;94094.09;;;28.63;41.05
6150;BME280;3106;42.670;23.318;2023-07-31T11:40:27;94106.91;;;28.66;41.10
6150;BME280;3106;42.670;23.318;2023-07-31T11:42:56;94106.72;;;28.10;42.90
6150;BME280;3106;42.670;23.318;2023-07-31T11:45:26;94123.38;;;28.16;43.45
6150;BME280;3106;42.670;23.318;2023-07-31T11:47:54;94094.50;;;28.11;43.33
6150;BME280;3106;42.670;23.318;2023-07-31T11:50:23;94113.84;;;28.53;42.11
6150;BME280;3106;42.670;23.318;2023-07-31T11:52:53;94100.69;;;28.57;41.69
6150;BME280;3106;42.670;23.318;2023-07-31T11:55:22;94100.28;;;28.22;42.42
6150;BME280;3106;42.670;23.318;2023-07-31T11:57:49;94086.56;;;28.04;42.53
6150;BME280;3106;42.670;23.318;2023-07-31T12:00:17;94105.34;;;27.97;42.55
6150;BME280;3106;42.670;23.318;2023-07-31T12:02:44;94124.75;;;27.85;42.73
6150;BME280;3106;42.670;23.318;2023-07-31T12:05:12;94106.31;;;27.76;42.63
6150;BME280;3106;42.670;23.318;2023-07-31T12:07:50;94104.84;;;28.43;42.45
6150;BME280;3106;42.670;23.318;2023-07-31T12:10:28;94095.28;;;28.71;41.93
6150;BME280;3106;42.670;23.318;2023-07-31T12:13:03;94095.63;;;28.55;41.73
6150;BME280;3106;42.670;23.318;2023-07-31T12:15:33;94097.94;;;28.57;41.83
6150;BME280;3106;42.670;23.318;2023-07-31T12:18:00;94095.09;;;28.75;42.13
6150;BME280;3106;42.670;23.318;2023-07-31T12:20:30;94080.25;;;28.81;41.47
6150;BME280;3106;42.670;23.318;2023-07-31T12:22:58;94090.66;;;29.10;42.18
6150;BME280;3106;42.670;23.318;2023-07-31T12:25:29;94081.19;;;29.34;41.77
6150;BME280;3106;42.670;23.318;2023-07-31T12:27:56;94067.16;;;29.56;41.74
6150;BME280;3106;42.670;23.318;2023-07-31T12:30:27;94082.16;;;29.69;40.72
6150;BME280;3106;42.670;23.318;2023-07-31T12:32:54;94084.50;;;29.15;41.04
6150;BME280;3106;42.670;23.318;2023-07-31T12:35:21;94082.25;;;29.37;40.21
6150;BME280;3106;42.670;23.318;2023-07-31T12:37:48;94085.06;;;29.04;39.86
6150;BME280;3106;42.670;23.318;2023-07-31T12:40:16;94091.63;;;28.65;40.65
6150;BME280;3106;42.670;23.318;2023-07-31T12:42:43;94088.53;;;28.72;40.55
6150;BME280;3106;42.670;23.318;2023-07-31T12:45:10;94087.56;;;28.84;40.40
6150;BME280;3106;42.670;23.318;2023-07-31T12:47:37;94074.72;;;28.90;39.95
6150;BME280;3106;42.670;23.318;2023-07-31T12:50:04;94072.84;;;28.96;39.68
6150;BME280;3106;42.670;23.318;2023-07-31T12:52:31;94079.00;;;28.50;41.31
6150;BME280;3106;42.670;23.318;2023-07-31T12:54:59;94040.72;;;28.10;41.41
6150;BME280;3106;42.670;23.318;2023-07-31T12:57:27;94063.28;;;28.41;41.26
6150;BME280;3106;42.670;23.318;2023-07-31T12:59:54;94062.59;;;28.64;41.12
6150;BME280;3106;42.670;23.318;2023-07-31T13:02:20;94072.31;;;29.07;40.16
6150;BME280;3106;42.670;23.318;2023-07-31T13:04:49;94061.97;;;29.49;39.24
6150;BME280;3106;42.670;23.318;2023-07-31T13:07:16;94060.53;;;29.91;38.98
6150;BME280;3106;42.670;23.318;2023-07-31T13:09:43;94050.31;;;30.06;38.94
6150;BME280;3106;42.670;23.318;2023-07-31T13:12:10;94034.41;;;29.49;40.57
6150;BME280;3106;42.670;23.318;2023-07-31T13:14:38;94060.38;;;29.10;40.45